Allenton, WI

1:42 AM CDT on August 30, 2015 (GMT -0500)
APRSWXNET | | Change Station
CLOSE
Current Station
Personal Weather Station
Location: West Bend, WI
Elevation: 1099 ft
Nearby Weather Stations
Active Advisory: Special Statement

Elev 1099 ft 43.45 °N, 88.26 °W | Updated 19 minutes ago

Overcast
Overcast
61 °F
Feels Like 61 °F
N
0
Wind Variable Wind from ESE
Gusts 0.0 mph

Today
High -- | Low -- °F
--% Chance of Precip.
Yesterday
High -- | Low -- °F
Precip. -- in
6:14 AM 7:32 PM
Full, 100% visible
Pressure 30.05 in
Visibility 4.0 miles
Clouds Overcast 2800 ft
Dew Point 60 °F
Humidity 97%
Rainfall in
Snow Depth Not available.
UV 0 out of 12
Pollen 1.40 out of 12
Air Quality Not available.
Flu Activity Not available.
METAR KETB 300635Z AUTO 00000KT 4SM BR OVC028 16/15 A3005 RMK AO2
Pressure 30.05 in
Visibility 4.0 miles
Clouds Overcast 2800 ft
Dew Point 60 °F
Humidity 97%
Rainfall in
Snow Depth Not available.
UV 0 out of 12
Pollen 1.40 out of 12
Air Quality Not available.
Flu Activity Not available.
METAR KETB 300635Z AUTO 00000KT 4SM BR OVC028 16/15 A3005 RMK AO2

10-Day Weather Forecast

×

Almanac

Astronomy

Aug. 30, 2015 Rise Set
Actual Time
Civil Twilight
Nautical Twilight
Astronomical Twilight
Moon
Length of Visible Light
Length of Day
Tomorrow will be .
, % of the Moon is Illuminated

Today's Extremes

State Highs State Lows

Community

WunderPhotos

Upload Photos

1,850,904 photos uploaded!

WunderBlogs® & News

Nearby

Air Quality

  Air Quality AQ Index Pollutant
Not available.

Snow Depth

Station Depth Elevation

Earthquake Activity

City Distance Mag. Time & Date
Minimum magnitude displayed is 2.5.

Coastal Water Temperatures

Place Temperature

Stations

Nearby Weather Stations

Station Location Temp. Windchill Dew Point Humidity Wind Precip. Elev Updated Type
                   
Special Statement
Statement as of 12:58 AM CDT on August 30, 2015

... Locally dense fog overnight...

Fog is beginning to thicken over portions of southern Wisconsin...
with the lowest visibilities in the Lakeshore counties. Expect
visibilities to be mainly in the 2 to 5 mile range... with locally
dense fog dropping visibilities to between 1/2 mile and 1/4 mile.

Drivers should be alert for rapidly changing conditions. Slow down
and use low-beam headlights when encountering the fog while
traveling overnight.


Rem

1258 am CDT sun Aug 30 2015

... Locally dense fog overnight...

Fog is beginning to thicken over portions of southern Wisconsin...
with the lowest visibilities in the Lakeshore counties. Expect
visibilities to be mainly in the 2 to 5 mile range... with locally
dense fog dropping visibilities to between 1/2 mile and 1/4 mile.

Drivers should be alert for rapidly changing conditions. Slow down
and use low-beam headlights when encountering the fog while
traveling overnight.


Rem